Time;durP1;ratioP1;P1;durP2;ratioP2;P2;SDS_P1;SDS_P2;PMS_P1;PMS_P2;Temp;Humidity;BMP_temperature;BMP_pressure;BME280_temperature;BME280_humidity;BME280_pressure;Samples;Min_cycle;Max_cycle;Signal;HPM_P1;HPM_P2
2022/01/03 00:01:44;;;;;;;;;1.00;1.00;;;;;17.90;60.70;101168.41;5011740;28;9453;-38
2022/01/03 00:04:10;;;;;;;;;0.00;0.00;;;;;17.91;60.63;101170.19;5012573;28;9102;-39
2022/01/03 00:06:38;;;;;;;;;0.33;0.00;;;;;17.88;60.87;101160.50;5012344;28;9018;-38
2022/01/03 00:09:04;;;;;;;;;1.00;1.00;;;;;17.88;60.38;101160.50;5011655;28;9158;-39
2022/01/03 00:11:31;;;;;;;;;0.00;0.00;;;;;17.88;60.65;101168.41;5012213;28;9007;-38
2022/01/03 00:13:57;;;;;;;;;1.00;1.00;;;;;17.88;60.57;101171.97;5012260;28;9042;-39
2022/01/03 00:16:24;;;;;;;;;1.00;1.00;;;;;17.85;60.65;101165.78;5011396;28;8974;-38
2022/01/03 00:18:51;;;;;;;;;3.33;1.00;;;;;17.88;60.64;101182.53;5012016;28;8947;-40
2022/01/03 00:21:18;;;;;;;;;3.00;2.00;;;;;17.86;60.53;101183.41;5012190;28;9117;-40
2022/01/03 00:23:56;;;;;;;;;0.33;0.33;;;;;17.86;60.38;101178.13;5011655;28;9109;-38
2022/01/03 00:26:26;;;;;;;;;0.67;0.67;;;;;17.86;60.32;101180.75;5011780;28;9015;-39
2022/01/03 00:28:58;;;;;;;;;0.00;0.00;;;;;17.84;60.46;101179.91;5011863;28;8940;-39
2022/01/03 00:31:35;;;;;;;;;1.00;1.00;;;;;17.85;60.33;101178.13;5011434;28;9006;-38
2022/01/03 00:34:04;;;;;;;;;2.00;1.00;;;;;17.84;60.49;101168.47;5011732;28;8950;-39
2022/01/03 00:36:34;;;;;;;;;2.00;0.00;;;;;17.82;60.42;101176.38;5011945;28;9113;-38
2022/01/03 00:38:59;;;;;;;;;3.33;1.00;;;;;17.83;60.13;101177.25;5011594;28;9040;-40
2022/01/03 00:41:28;;;;;;;;;1.00;1.00;;;;;17.82;60.16;101179.00;5011822;28;9054;-37
2022/01/03 00:43:55;;;;;;;;;1.67;1.00;;;;;17.84;60.36;101173.75;5010852;28;8782;-39
2022/01/03 00:46:21;;;;;;;;;1.00;1.00;;;;;17.84;60.02;101176.38;5011937;28;9134;-38
2022/01/03 00:48:47;;;;;;;;;0.33;0.33;;;;;17.82;59.94;101175.47;5011513;28;9009;-39
2022/01/03 00:51:21;;;;;;;;;1.00;1.00;;;;;17.81;60.13;101174.59;5011044;28;8943;-39
2022/01/03 00:53:47;;;;;;;;;0.67;0.67;;;;;17.82;60.17;101180.78;5011238;28;8782;-38
2022/01/03 00:56:17;;;;;;;;;0.25;0.25;;;;;17.81;60.17;101187.81;5011450;28;9058;-39
2022/01/03 00:58:53;;;;;;;;;1.00;1.00;;;;;17.81;60.22;101182.53;5011020;28;8765;-38
2022/01/03 01:01:19;;;;;;;;;0.00;0.00;;;;;17.81;60.20;101181.63;5011632;28;8786;-37
2022/01/03 01:03:48;;;;;;;;;1.00;0.00;;;;;17.78;59.84;101171.97;5011541;28;8778;-38
2022/01/03 01:06:14;;;;;;;;;1.00;1.00;;;;;17.80;60.22;101187.84;5011293;28;8782;-38
2022/01/03 01:08:40;;;;;;;;;2.00;2.00;;;;;17.79;59.87;101184.31;5011065;28;9729;-39
2022/01/03 01:11:07;;;;;;;;;0.67;0.67;;;;;17.80;59.86;101186.06;5011512;28;8867;-38
2022/01/03 01:13:35;;;;;;;;;0.00;0.00;;;;;17.78;59.81;101185.19;5010920;28;9631;-38
2022/01/03 01:16:05;;;;;;;;;1.00;1.00;;;;;17.79;59.70;101180.78;5010611;28;9074;-39
2022/01/03 01:18:34;;;;;;;;;1.00;1.00;;;;;17.78;60.13;101182.53;5011647;28;9892;-38
2022/01/03 01:20:59;;;;;;;;;0.00;0.00;;;;;17.77;59.74;101191.34;5010757;28;9042;-39
2022/01/03 01:23:27;;;;;;;;;1.00;1.00;;;;;17.77;59.70;101186.06;5011145;28;9112;-38
2022/01/03 01:28:18;;;;;;;;;1.00;0.00;;;;;17.76;59.75;101189.59;5011211;28;9112;-39
2022/01/03 01:30:45;;;;;;;;;1.00;1.00;;;;;17.76;59.77;101181.69;5010827;28;8778;-38
2022/01/03 01:33:13;;;;;;;;;1.00;1.00;;;;;17.76;59.82;101188.72;5010991;28;8841;-38
2022/01/03 01:35:57;;;;;;;;;3.33;1.00;;;;;17.75;59.99;101185.19;5011151;28;9165;-39
2022/01/03 01:38:28;;;;;;;;;1.00;1.00;;;;;17.75;59.59;101185.19;5011053;28;9106;-38
2022/01/03 01:40:56;;;;;;;;;1.67;1.00;;;;;17.75;59.94;101187.84;5010155;28;9266;-39
2022/01/03 01:43:34;;;;;;;;;1.00;1.00;;;;;17.76;59.64;101180.81;5011115;28;9224;-39
2022/01/03 01:46:04;;;;;;;;;1.00;1.00;;;;;17.76;59.80;101188.72;5010869;28;10002;-38
2022/01/03 01:48:33;;;;;;;;;2.67;2.67;;;;;17.75;59.69;101193.13;5010812;28;9853;-38
2022/01/03 01:50:59;;;;;;;;;0.67;0.00;;;;;17.75;59.80;101179.03;5010740;28;9185;-38
2022/01/03 01:53:30;;;;;;;;;0.00;0.00;;;;;17.75;59.50;101185.19;5011233;28;9177;-38
2022/01/03 01:55:57;;;;;;;;;0.00;0.00;;;;;17.75;59.68;101190.47;5010240;28;9183;-39
2022/01/03 01:58:27;;;;;;;;;1.67;0.00;;;;;17.74;59.65;101198.38;5011084;28;9169;-38
2022/01/03 02:00:58;;;;;;;;;2.00;0.67;;;;;17.73;59.36;101189.59;5010950;28;9131;-38
2022/01/03 02:03:47;;;;;;;;;1.00;1.00;;;;;17.73;59.60;101194.88;5010726;28;9001;-38
2022/01/03 02:06:22;;;;;;;;;1.33;1.33;;;;;17.72;59.89;101194.88;5010651;28;9241;-39
2022/01/03 02:09:06;;;;;;;;;0.00;0.00;;;;;17.72;59.78;101205.44;5010574;28;10074;-37
2022/01/03 02:11:39;;;;;;;;;1.00;1.00;;;;;17.72;59.66;101200.16;5010643;28;8926;-38
2022/01/03 02:14:04;;;;;;;;;1.00;1.00;;;;;17.71;59.70;101206.31;5010847;28;9198;-38
2022/01/03 02:16:32;;;;;;;;;0.67;0.67;;;;;17.72;59.56;101211.63;5009977;28;9463;-39
2022/01/03 02:18:57;;;;;;;;;0.00;0.00;;;;;17.72;59.33;101218.66;5010269;28;8782;-38
2022/01/03 02:21:23;;;;;;;;;2.67;1.33;;;;;17.72;59.49;101214.25;5010891;28;9128;-39
2022/01/03 02:23:48;;;;;;;;;0.00;0.00;;;;;17.70;59.39;101208.09;5012649;28;8774;-38
2022/01/03 02:26:13;;;;;;;;;0.00;0.00;;;;;17.70;59.65;101205.44;5014148;28;8882;-38
2022/01/03 02:28:38;;;;;;;;;1.00;0.67;;;;;17.70;59.58;101207.19;5014624;28;8770;-37
2022/01/03 02:31:04;;;;;;;;;0.00;0.00;;;;;17.68;59.30;101214.25;5013111;28;8797;-39
2022/01/03 02:33:29;;;;;;;;;0.00;0.00;;;;;17.69;59.42;101210.75;5014302;28;8781;-39
2022/01/03 02:35:54;;;;;;;;;2.33;2.00;;;;;17.62;59.24;101191.38;5013852;28;8924;-38
2022/01/03 02:38:20;;;;;;;;;1.33;1.00;;;;;17.68;59.23;101211.63;5013250;28;8798;-38
2022/01/03 02:40:45;;;;;;;;;1.67;0.00;;;;;17.68;59.50;101201.94;5013643;28;8778;-38
2022/01/03 02:43:10;;;;;;;;;0.67;0.67;;;;;17.68;59.18;101206.34;5013470;28;8816;-39
2022/01/03 02:45:36;;;;;;;;;0.67;0.33;;;;;17.68;59.21;101206.34;5013634;28;8785;-39
2022/01/03 02:48:07;;;;;;;;;1.00;1.00;;;;;17.67;59.13;101200.16;5013767;28;8786;-38
2022/01/03 02:50:34;;;;;;;;;0.00;0.00;;;;;17.67;59.26;101204.56;5013278;28;8766;-39
2022/01/03 02:53:00;;;;;;;;;1.67;0.33;;;;;17.66;59.34;101193.13;5013550;28;9016;-39
2022/01/03 02:55:27;;;;;;;;;0.00;0.00;;;;;17.68;59.25;101201.94;5014098;28;9112;-39
2022/01/03 02:57:59;;;;;;;;;2.33;2.00;;;;;17.68;59.54;101199.31;5013037;28;8786;-39
2022/01/03 03:00:27;;;;;;;;;1.67;1.67;;;;;17.69;59.14;101189.63;5013927;28;9036;-38
2022/01/03 03:02:54;;;;;;;;;1.00;1.00;;;;;17.68;59.20;101193.13;5013060;28;9107;-38
2022/01/03 03:05:19;;;;;;;;;0.00;0.00;;;;;17.68;59.40;101186.09;5013415;28;9095;-37
2022/01/03 03:07:45;;;;;;;;;1.00;1.00;;;;;17.68;59.15;101193.13;5012997;28;9104;-37
2022/01/03 03:10:19;;;;;;;;;2.00;2.00;;;;;17.67;59.30;101191.38;5013490;28;8789;-38
2022/01/03 03:12:45;;;;;;;;;3.00;1.33;;;;;17.67;59.12;101191.38;5012766;28;9166;-38
2022/01/03 03:15:12;;;;;;;;;0.00;0.00;;;;;17.67;59.21;101191.38;5013147;28;9150;-37
2022/01/03 03:17:39;;;;;;;;;0.33;0.33;;;;;17.65;59.38;101179.94;5013170;28;9071;-38
2022/01/03 03:20:22;;;;;;;;;0.00;0.00;;;;;17.66;59.13;101181.69;5012708;28;8961;-38
2022/01/03 03:22:49;;;;;;;;;1.00;1.00;;;;;17.66;59.23;101192.25;5013069;28;9005;-39
2022/01/03 03:25:29;;;;;;;;;1.33;1.00;;;;;17.63;59.16;101185.22;5013471;28;9055;-38
2022/01/03 03:28:08;;;;;;;;;1.00;0.00;;;;;17.65;58.99;101186.09;5012732;28;9029;-38
2022/01/03 03:30:39;;;;;;;;;2.33;1.67;;;;;17.65;59.16;101179.94;5013235;28;9109;-37
2022/01/03 03:33:24;;;;;;;;;0.00;0.00;;;;;17.64;59.43;101180.81;5012813;28;9038;-38
2022/01/03 03:35:51;;;;;;;;;1.00;1.00;;;;;17.63;59.13;101179.94;5012623;28;9809;-38
2022/01/03 03:38:17;;;;;;;;;1.00;1.00;;;;;17.63;59.21;101181.69;5013037;28;9183;-38
2022/01/03 03:40:45;;;;;;;;;3.00;1.67;;;;;17.63;59.08;101179.94;5012440;28;9177;-38
2022/01/03 03:43:12;;;;;;;;;1.00;0.00;;;;;17.64;59.09;101180.81;5012751;28;9264;-38
2022/01/03 03:45:37;;;;;;;;;1.33;1.00;;;;;17.63;59.26;101182.56;5012934;28;9176;-38
2022/01/03 03:48:03;;;;;;;;;1.00;1.00;;;;;17.64;59.26;101175.53;5012192;28;9101;-37
2022/01/03 03:50:28;;;;;;;;;2.33;1.00;;;;;17.63;59.00;101179.06;5012402;28;8774;-38
2022/01/03 03:52:54;;;;;;;;;1.00;1.00;;;;;17.63;59.04;101194.88;5012574;28;10338;-38
2022/01/03 03:55:20;;;;;;;;;2.00;1.00;;;;;17.62;59.30;101188.72;5012248;28;8881;-37
2022/01/03 03:57:45;;;;;;;;;2.00;1.00;;;;;17.62;59.39;101169.41;5012026;28;8778;-38
2022/01/03 04:00:15;;;;;;;;;2.33;2.00;;;;;17.61;58.97;101176.44;5012838;28;8856;-38
2022/01/03 04:02:40;;;;;;;;;0.00;0.00;;;;;17.59;59.28;101167.63;5011472;28;8786;-39
2022/01/03 04:05:06;;;;;;;;;2.00;2.00;;;;;17.59;59.39;101170.25;5012353;28;9115;-39
2022/01/03 04:07:32;;;;;;;;;0.67;0.67;;;;;17.60;59.15;101164.09;5012655;28;8751;-38
2022/01/03 04:10:00;;;;;;;;;0.33;0.33;;;;;17.61;59.24;101157.06;5011220;28;9246;-38
2022/01/03 04:12:26;;;;;;;;;2.00;2.00;;;;;17.61;59.27;101157.94;5012574;28;8781;-38
2022/01/03 04:14:52;;;;;;;;;1.00;0.00;;;;;17.59;59.04;101159.69;5011446;28;9323;-38
2022/01/03 04:17:17;;;;;;;;;2.33;1.00;;;;;17.60;58.93;101148.25;5012123;28;9130;-38
2022/01/03 04:19:42;;;;;;;;;1.67;1.00;;;;;17.59;58.91;101157.06;5012195;28;9549;-38
2022/01/03 04:22:08;;;;;;;;;1.00;0.00;;;;;17.59;59.19;101158.81;5011942;28;8777;-38
2022/01/03 04:24:33;;;;;;;;;1.00;1.00;;;;;17.60;59.09;101147.38;5011991;28;8785;-38
2022/01/03 04:26:58;;;;;;;;;2.00;1.00;;;;;17.58;59.04;101150.03;5011995;28;8786;-39
2022/01/03 04:29:24;;;;;;;;;1.00;1.00;;;;;17.57;58.82;101150.03;5011689;28;8773;-37
2022/01/03 04:31:49;;;;;;;;;2.00;0.67;;;;;17.58;58.96;101149.16;5011552;28;8778;-38
2022/01/03 04:34:15;;;;;;;;;1.00;1.00;;;;;17.59;58.82;101154.41;5012195;28;8789;-37
2022/01/03 04:36:41;;;;;;;;;1.33;1.33;;;;;17.58;58.93;101155.31;5011111;28;8928;-37
2022/01/03 04:39:07;;;;;;;;;1.67;1.67;;;;;17.58;59.02;101144.75;5011942;28;8778;-39
2022/01/03 04:41:38;;;;;;;;;1.00;0.00;;;;;17.58;59.21;101143.88;5011866;28;9200;-38
2022/01/03 04:44:07;;;;;;;;;0.00;0.00;;;;;17.55;59.25;101142.06;5011095;28;8778;-39
2022/01/03 04:46:34;;;;;;;;;2.67;2.00;;;;;17.56;59.21;101143.84;5010978;28;9108;-38
2022/01/03 04:48:59;;;;;;;;;0.00;0.00;;;;;17.57;59.22;101129.78;5011967;28;9714;-37
2022/01/03 04:51:25;;;;;;;;;4.00;2.00;;;;;17.56;59.02;101135.91;5011282;28;9100;-37
2022/01/03 04:53:50;;;;;;;;;3.00;2.00;;;;;17.56;58.97;101135.03;5011405;28;8813;-38
2022/01/03 04:56:15;;;;;;;;;3.00;3.00;;;;;17.56;58.82;101141.19;5011749;28;9529;-37
2022/01/03 04:58:42;;;;;;;;;1.33;1.33;;;;;17.57;59.20;101139.47;5010772;28;8794;-38
2022/01/03 05:01:07;;;;;;;;;3.67;2.00;;;;;17.56;58.97;101137.66;5011466;28;8798;-37
2022/01/03 05:03:33;;;;;;;;;2.00;1.00;;;;;17.54;59.30;101129.78;5011625;28;9099;-38
2022/01/03 05:06:01;;;;;;;;;3.00;1.00;;;;;17.55;59.15;101127.97;5010732;28;8782;-38
2022/01/03 05:08:30;;;;;;;;;2.00;1.00;;;;;17.54;59.24;101131.53;5011628;28;8808;-37
2022/01/03 05:10:56;;;;;;;;;3.67;2.00;;;;;17.54;58.83;101129.78;5010766;28;9263;-38
2022/01/03 05:13:21;;;;;;;;;2.00;1.67;;;;;17.56;59.01;101129.75;5011323;28;9192;-42
2022/01/03 05:15:47;;;;;;;;;2.00;2.00;;;;;17.55;59.19;101122.69;5010820;28;9227;-38
2022/01/03 05:18:12;;;;;;;;;1.33;1.33;;;;;17.55;59.13;101125.34;5010997;28;8909;-38
2022/01/03 05:20:37;;;;;;;;;1.00;1.00;;;;;17.53;58.90;101125.38;5011328;28;8777;-38
2022/01/03 05:23:02;;;;;;;;;1.00;1.00;;;;;17.54;59.19;101123.59;5011179;28;8778;-38
2022/01/03 05:25:28;;;;;;;;;3.00;1.00;;;;;17.54;58.95;101128.88;5011088;28;9551;-39
2022/01/03 05:27:54;;;;;;;;;3.00;1.00;;;;;17.53;59.18;101128.00;5010563;28;8774;-38
2022/01/03 05:30:20;;;;;;;;;4.75;3.75;;;;;17.55;59.25;101120.06;5011248;28;8782;-38
2022/01/03 05:32:46;;;;;;;;;2.00;2.00;;;;;17.53;59.18;101120.09;5010555;28;10406;-38
2022/01/03 05:35:11;;;;;;;;;2.00;1.33;;;;;17.53;58.85;101135.94;5011041;28;9247;-38
2022/01/03 05:37:37;;;;;;;;;1.00;0.00;;;;;17.53;59.18;101120.09;5011077;28;8798;-38
2022/01/03 05:40:04;;;;;;;;;2.00;2.00;;;;;17.53;58.97;101127.13;5010618;28;9618;-38
2022/01/03 05:42:29;;;;;;;;;1.33;1.33;;;;;17.53;58.91;101120.09;5011020;28;8769;-39
2022/01/03 05:44:55;;;;;;;;;1.00;0.00;;;;;17.53;59.18;101121.84;5011009;28;9250;-38
2022/01/03 05:47:20;;;;;;;;;2.00;1.00;;;;;17.52;59.33;101115.69;5010714;28;8802;-38
2022/01/03 05:49:46;;;;;;;;;4.00;3.00;;;;;17.53;59.09;101116.56;5010713;28;8781;-38
2022/01/03 05:52:11;;;;;;;;;2.67;2.00;;;;;17.51;58.97;101113.91;5011351;28;8808;-38
2022/01/03 05:54:36;;;;;;;;;1.00;1.00;;;;;17.51;59.11;101113.91;5010637;28;8860;-37
2022/01/03 05:57:02;;;;;;;;;1.33;1.33;;;;;17.51;59.25;101110.44;5010569;28;9735;-39
2022/01/03 05:59:27;;;;;;;;;4.00;2.00;;;;;17.51;59.07;101106.00;5014548;28;8786;-39
2022/01/03 06:01:54;;;;;;;;;2.00;1.67;;;;;17.51;59.20;101099.88;5013961;28;8769;-38
2022/01/03 06:04:22;;;;;;;;;2.00;2.00;;;;;17.49;59.23;101099.84;5014813;28;8769;-38
2022/01/03 06:07:13;;;;;;;;;0.67;0.67;;;;;17.50;59.26;101098.97;5014588;28;10064;-38
2022/01/03 06:09:42;;;;;;;;;3.00;3.00;;;;;17.51;59.01;101108.63;5011464;28;9406;-38
2022/01/03 06:12:07;;;;;;;;;1.33;1.00;;;;;17.51;59.03;101100.72;5014316;28;9265;-38
2022/01/03 06:14:33;;;;;;;;;2.00;1.00;;;;;17.50;59.34;101096.34;5013752;28;9209;-38
2022/01/03 06:17:03;;;;;;;;;3.67;3.00;;;;;17.50;59.01;101103.38;5014287;28;8817;-37
2022/01/03 06:19:29;;;;;;;;;2.00;2.00;;;;;17.50;59.18;101100.75;5014403;28;9238;-38
2022/01/03 06:21:56;;;;;;;;;1.67;1.67;;;;;17.50;59.28;101106.03;5014000;28;9253;-39
2022/01/03 06:24:21;;;;;;;;;2.67;2.00;;;;;17.49;59.05;101107.78;5014537;28;8908;-40
2022/01/03 06:26:49;;;;;;;;;1.33;1.33;;;;;17.49;59.24;101099.84;5014322;28;9042;-38
2022/01/03 06:29:15;;;;;;;;;1.00;1.00;;;;;17.51;59.07;101105.16;5013837;28;9521;-39
2022/01/03 06:31:41;;;;;;;;;3.00;2.00;;;;;17.49;58.91;101102.50;5013872;28;10027;-43
2022/01/03 06:34:07;;;;;;;;;1.67;1.67;;;;;17.50;59.12;101106.91;5014258;28;9329;-38
2022/01/03 06:36:33;;;;;;;;;2.33;1.67;;;;;17.50;58.95;101100.75;5013633;28;8822;-38
2022/01/03 06:38:59;;;;;;;;;1.33;1.33;;;;;17.48;59.22;101100.72;5013283;28;8771;-38
2022/01/03 06:41:25;;;;;;;;;2.33;1.33;;;;;17.50;59.12;101100.75;5014207;28;8782;-38
2022/01/03 06:43:50;;;;;;;;;6.67;2.00;;;;;17.44;58.94;101096.34;5013344;28;9185;-39
2022/01/03 06:46:16;;;;;;;;;2.00;1.00;;;;;17.49;59.02;101097.22;5013843;28;9135;-39
2022/01/03 06:48:43;;;;;;;;;4.67;3.33;;;;;17.49;59.16;101102.50;5013738;28;8848;-39
2022/01/03 06:51:08;;;;;;;;;2.67;2.67;;;;;17.48;59.07;101095.44;5013411;28;8780;-38
2022/01/03 06:53:34;;;;;;;;;1.00;1.00;;;;;17.50;59.25;101106.91;5013962;28;9103;-37
2022/01/03 06:55:59;;;;;;;;;3.00;3.00;;;;;17.49;59.18;101106.88;5013215;28;8821;-38
2022/01/03 06:58:24;;;;;;;;;2.00;2.00;;;;;17.48;58.89;101106.00;5013278;28;8794;-37
2022/01/03 07:00:50;;;;;;;;;0.00;0.00;;;;;17.49;59.20;101105.13;5013714;28;8896;-38
2022/01/03 07:03:15;;;;;;;;;2.00;1.67;;;;;17.49;59.07;101105.13;5013783;28;8843;-39
2022/01/03 07:05:41;;;;;;;;;2.00;1.00;;;;;17.49;58.88;101101.63;5012698;28;8802;-38
2022/01/03 07:08:06;;;;;;;;;1.33;1.33;;;;;17.48;59.31;101103.38;5013454;28;8781;-39
2022/01/03 07:10:31;;;;;;;;;3.67;1.67;;;;;17.48;59.17;101095.44;5013062;28;9505;-37
2022/01/03 07:12:59;;;;;;;;;1.00;1.00;;;;;17.48;59.04;101090.16;5012977;28;8770;-38
2022/01/03 07:20:52;;;;;;;;;7.00;2.33;;;;;17.47;59.23;101106.03;5012895;28;9088;-38
2022/01/03 07:23:19;;;;;;;;;2.00;1.67;;;;;17.47;59.11;101113.94;5013289;28;9119;-39
2022/01/03 07:25:46;;;;;;;;;2.00;1.33;;;;;17.47;59.92;101113.94;5012736;28;8774;-38
2022/01/03 07:28:13;;;;;;;;;2.33;2.33;;;;;17.48;60.13;101120.97;5013040;28;9274;-38
2022/01/03 07:30:38;;;;;;;;;4.67;3.33;;;;;17.51;60.56;101113.06;5013107;28;10024;-39
2022/01/03 07:33:03;;;;;;;;;2.33;2.33;;;;;17.54;61.20;101111.28;5012219;28;9353;-39
2022/01/03 07:35:29;;;;;;;;;6.33;5.33;;;;;17.57;62.12;101116.59;5013203;28;8814;-38
2022/01/03 07:37:54;;;;;;;;;4.00;3.00;;;;;17.61;62.39;101118.34;5012680;28;8781;-38
2022/01/03 07:40:20;;;;;;;;;4.00;3.00;;;;;17.64;63.18;101122.72;5012533;28;8790;-39
2022/01/03 07:42:46;;;;;;;;;5.67;4.00;;;;;17.65;63.70;101128.00;5012677;28;8778;-38
2022/01/03 07:45:12;;;;;;;;;4.33;2.67;;;;;17.68;63.73;101116.56;5013138;28;9379;-39
2022/01/03 07:47:37;;;;;;;;;5.33;5.00;;;;;17.69;64.17;101126.25;5012147;28;9641;-38
2022/01/03 07:50:04;;;;;;;;;4.67;4.33;;;;;17.71;64.29;101122.72;5012021;28;8899;-39
2022/01/03 07:52:30;;;;;;;;;5.67;4.33;;;;;17.71;64.63;101121.81;5012472;28;8793;-38
2022/01/03 07:54:55;;;;;;;;;4.33;4.33;;;;;17.70;65.01;101130.63;5011613;28;9266;-39
2022/01/03 07:57:21;;;;;;;;;8.00;6.50;;;;;17.82;66.54;101120.91;5012526;28;8906;-38
2022/01/03 07:59:46;;;;;;;;;5.00;3.00;;;;;17.90;65.39;101122.63;5011655;28;8865;-37
2022/01/03 08:02:12;;;;;;;;;2.00;1.00;;;;;17.76;61.75;101134.16;5009254;28;9576;-38
2022/01/03 08:04:38;;;;;;;;;2.67;2.67;;;;;16.98;59.53;101121.94;5011654;28;8793;-36
2022/01/03 08:07:04;;;;;;;;;3.00;2.00;;;;;16.70;60.17;101117.50;5011357;28;8949;-37
2022/01/03 08:09:29;;;;;;;;;3.33;2.67;;;;;16.53;59.62;101114.84;5011132;28;8782;-37
2022/01/03 08:11:54;;;;;;;;;6.75;5.25;;;;;16.52;59.13;101109.53;5011211;28;8816;-38
2022/01/03 08:14:20;;;;;;;;;4.67;4.00;;;;;16.71;58.87;101106.97;5010345;28;9561;-37
2022/01/03 08:16:45;;;;;;;;;5.67;4.67;;;;;16.96;59.35;101112.22;5010474;28;8832;-37
2022/01/03 08:19:10;;;;;;;;;4.00;3.00;;;;;17.18;60.26;101114.84;5011072;28;8802;-37
2022/01/03 08:21:35;;;;;;;;;6.33;2.00;;;;;17.35;60.10;101107.81;5010331;28;8774;-36
2022/01/03 08:24:01;;;;;;;;;2.33;2.00;;;;;17.47;59.89;101109.53;5011604;28;8801;-37
2022/01/03 08:26:26;;;;;;;;;4.00;3.00;;;;;17.56;59.66;101106.88;5011838;28;8762;-37
2022/01/03 08:28:52;;;;;;;;;2.00;2.00;;;;;17.63;59.55;101103.38;5010436;28;8778;-37
2022/01/03 08:31:17;;;;;;;;;4.00;2.67;;;;;17.66;59.65;101102.47;5011433;28;8870;-39
2022/01/03 08:33:43;;;;;;;;;5.00;3.33;;;;;17.67;59.82;101118.31;5011448;28;8828;-38
2022/01/03 08:36:08;;;;;;;;;6.33;4.00;;;;;17.68;59.38;101119.19;5010972;28;8829;-37
2022/01/03 08:38:34;;;;;;;;;5.00;4.67;;;;;17.68;59.38;101124.47;5021962;28;9337;-37
2022/01/03 08:40:59;;;;;;;;;3.67;3.00;;;;;17.70;59.35;101120.94;5031273;28;8800;-36
2022/01/03 08:43:24;;;;;;;;;3.33;2.33;;;;;17.72;59.24;101129.75;5030021;28;9625;-37
2022/01/03 08:45:49;;;;;;;;;7.00;4.00;;;;;17.75;59.27;101123.56;5031332;28;8795;-37
2022/01/03 08:48:15;;;;;;;;;3.00;2.00;;;;;17.75;59.21;101119.16;5031446;28;8768;-44
2022/01/03 08:50:40;;;;;;;;;3.67;2.67;;;;;17.77;58.74;101125.31;5030505;28;8819;-38
2022/01/03 08:53:05;;;;;;;;;5.00;4.00;;;;;17.79;58.66;101131.47;5027262;28;8821;-37
2022/01/03 08:55:31;;;;;;;;;5.67;4.00;;;;;17.80;58.66;101127.97;5005830;28;9769;-36
2022/01/03 08:57:57;;;;;;;;;4.33;3.00;;;;;17.79;58.94;101134.13;5003530;28;8798;-37
2022/01/03 09:00:25;;;;;;;;;5.00;2.67;;;;;17.83;58.67;101132.34;5029534;28;8838;-37
2022/01/03 09:02:50;;;;;;;;;4.00;4.00;;;;;17.84;58.84;101126.19;5025699;28;8893;-37
2022/01/03 09:05:16;;;;;;;;;3.33;2.00;;;;;17.85;58.42;101130.56;5010949;28;9421;-37
2022/01/03 09:07:41;;;;;;;;;3.00;3.00;;;;;17.86;58.36;101121.78;5011240;28;8798;-38
2022/01/03 09:10:07;;;;;;;;;5.50;2.75;;;;;17.91;58.39;101121.75;5010549;28;8782;-37
2022/01/03 09:12:32;;;;;;;;;9.00;5.33;;;;;17.91;58.24;101124.41;5010810;28;8785;-37
2022/01/03 09:14:58;;;;;;;;;4.67;4.67;;;;;17.91;58.42;101122.63;5011015;28;8919;-38
2022/01/03 09:17:24;;;;;;;;;3.00;3.00;;;;;17.91;58.21;101106.78;5010598;28;8777;-38
2022/01/03 09:19:50;;;;;;;;;4.33;4.00;;;;;17.92;58.16;101111.16;5010743;28;9293;-38
2022/01/03 09:22:20;;;;;;;;;5.00;3.00;;;;;17.88;57.83;101118.22;5011273;28;8844;-38
2022/01/03 09:24:55;;;;;;;;;3.00;2.00;;;;;17.81;58.23;101127.06;5010629;28;9306;-38
2022/01/03 09:30:06;;;;;;;;;3.00;3.00;;;;;18.16;58.19;101107.53;5011345;28;9329;-37
2022/01/03 09:32:34;;;;;;;;;2.00;2.00;;;;;18.16;58.59;101108.44;5012502;28;9287;-38
2022/01/03 09:35:00;;;;;;;;;4.67;3.00;;;;;18.19;58.78;101104.88;5014911;28;9250;-38
2022/01/03 09:37:25;;;;;;;;;5.67;3.00;;;;;18.21;59.12;101100.47;5015220;28;9259;-38
2022/01/03 09:39:52;;;;;;;;;1.67;1.00;;;;;18.24;58.92;101092.53;5013786;28;9356;-39
2022/01/03 09:42:23;;;;;;;;;4.00;3.00;;;;;18.27;59.36;101106.59;5014923;28;9542;-38
2022/01/03 09:44:50;;;;;;;;;3.00;3.00;;;;;18.25;58.88;101105.75;5014964;28;9262;-38
2022/01/03 09:47:18;;;;;;;;;3.33;3.00;;;;;18.05;57.25;101099.66;5014349;28;9109;-37
2022/01/03 09:49:45;;;;;;;;;6.67;6.00;;;;;17.84;57.19;101092.75;5014855;28;9239;-37
2022/01/03 09:52:11;;;;;;;;;5.00;4.25;;;;;17.74;56.64;101096.28;5015029;28;9246;-37
2022/01/03 09:54:37;;;;;;;;;4.67;4.67;;;;;17.76;57.37;101097.16;5013514;28;9411;-38
2022/01/03 09:57:04;;;;;;;;;5.00;5.00;;;;;17.93;57.02;101097.09;5014353;28;9501;-36
2022/01/03 09:59:30;;;;;;;;;5.00;3.33;;;;;18.07;57.21;101094.41;5014177;28;9350;-38
2022/01/03 10:01:56;;;;;;;;;3.00;2.00;;;;;18.17;57.12;101089.03;5014291;28;9343;-37
2022/01/03 10:04:22;;;;;;;;;7.00;4.25;;;;;18.25;57.21;101087.25;5014775;28;9945;-39
2022/01/03 10:06:48;;;;;;;;;7.75;5.25;;;;;18.29;57.22;101082.81;5013542;28;8805;-37
2022/01/03 10:09:14;;;;;;;;;5.00;3.00;;;;;18.36;57.54;101084.53;5013918;28;9414;-37
2022/01/03 10:11:39;;;;;;;;;5.00;2.67;;;;;18.41;57.88;101081.88;5014034;28;11473;-38
2022/01/03 10:14:05;;;;;;;;;4.67;3.33;;;;;18.48;57.82;101083.56;5013727;28;8786;-38
2022/01/03 10:16:30;;;;;;;;;5.00;2.67;;;;;18.52;57.85;101083.53;5013870;28;8821;-38
2022/01/03 10:18:55;;;;;;;;;3.00;3.00;;;;;18.51;58.20;101078.25;5013915;28;8786;-38
2022/01/03 10:21:37;;;;;;;;;8.67;5.00;;;;;16.84;57.23;101082.34;5014281;28;8810;-37
2022/01/03 10:24:03;;;;;;;;;7.33;5.33;;;;;14.90;64.24;101091.19;5014529;28;8817;-38
2022/01/03 10:26:28;;;;;;;;;7.33;5.00;;;;;16.55;65.65;101084.06;5031228;28;9262;-38
2022/01/03 10:29:13;;;;;;;;;4.33;2.67;;;;;17.56;62.91;101093.66;5018548;28;9333;-38
2022/01/03 10:31:41;;;;;;;;;4.33;4.00;;;;;17.92;61.69;101076.81;5028996;28;8895;-37
2022/01/03 10:34:08;;;;;;;;;4.67;3.67;;;;;18.19;60.75;101079.34;5013978;28;9406;-37
2022/01/03 10:36:35;;;;;;;;;3.00;3.00;;;;;18.33;60.64;101068.69;5017237;28;9402;-37
2022/01/03 10:39:20;;;;;;;;;6.00;2.67;;;;;18.42;60.49;101065.97;5032781;28;9240;-37
2022/01/03 10:42:06;;;;;;;;;9.00;6.00;;;;;18.50;60.44;101060.63;5033103;28;9226;-37
2022/01/03 10:44:37;;;;;;;;;0.00;0.00;;;;;18.53;60.46;101050.94;5031674;28;9397;-37
2022/01/03 10:47:14;;;;;;;;;4.33;3.00;;;;;18.52;60.65;101051.81;5032980;28;9173;-37
2022/01/03 10:49:41;;;;;;;;;5.00;4.67;;;;;18.54;60.75;101051.81;5032701;28;9182;-38
2022/01/03 10:52:27;;;;;;;;;2.67;2.33;;;;;18.52;60.44;101051.81;5033608;28;9255;-38
2022/01/03 10:55:15;;;;;;;;;6.00;3.67;;;;;18.50;60.79;101050.06;5030466;28;9176;-38
2022/01/03 10:57:52;;;;;;;;;5.00;2.00;;;;;18.52;60.68;101043.03;5013584;28;9211;-38
2022/01/03 11:00:25;;;;;;;;;3.00;3.00;;;;;18.52;61.03;101049.19;5013545;28;9169;-37
2022/01/03 11:03:07;;;;;;;;;5.00;3.25;;;;;18.44;60.89;101058.03;5012624;28;9282;-38
2022/01/03 11:05:40;;;;;;;;;6.67;4.33;;;;;18.15;60.27;101060.84;5013023;28;9422;-37
2022/01/03 11:10:47;;;;;;;;;5.33;5.00;;;;;15.56;67.03;101053.94;5012783;28;9391;-38
2022/01/03 11:13:16;;;;;;;;;1.67;1.67;;;;;17.08;64.40;101046.28;5013626;28;10121;-38
2022/01/03 11:15:56;;;;;;;;;5.67;3.67;;;;;17.71;63.34;101046.13;5012604;28;9234;-38
2022/01/03 11:18:29;;;;;;;;;5.67;4.67;;;;;17.99;62.46;101041.59;5012639;28;9210;-38
2022/01/03 11:21:13;;;;;;;;;7.33;5.67;;;;;18.12;62.37;101048.53;5013111;28;9259;-38
2022/01/03 11:23:47;;;;;;;;;3.33;2.00;;;;;18.16;62.40;101038.84;5012722;28;9290;-38
2022/01/03 11:26:17;;;;;;;;;6.00;4.33;;;;;18.21;62.48;101039.69;5012805;28;9262;-38
2022/01/03 11:28:43;;;;;;;;;5.67;3.67;;;;;18.22;62.49;101037.03;5012746;28;9317;-38
2022/01/03 11:31:11;;;;;;;;;13.50;4.75;;;;;18.00;60.75;101037.16;5011331;28;9271;-38
2022/01/03 11:33:38;;;;;;;;;6.00;5.00;;;;;17.53;59.92;101026.81;5012610;28;9505;-46
2022/01/03 11:36:07;;;;;;;;;6.75;5.25;;;;;17.33;60.63;101024.22;5012274;28;9207;-38
2022/01/03 11:38:38;;;;;;;;;6.00;4.67;;;;;17.52;61.23;101019.75;5014999;28;9543;-38
2022/01/03 11:41:06;;;;;;;;;5.00;4.00;;;;;17.88;61.29;101027.56;5032554;28;9248;-39
2022/01/03 11:43:41;;;;;;;;;4.00;4.00;;;;;18.26;60.93;101014.97;5032696;28;9286;-38
2022/01/03 11:46:07;;;;;;;;;5.67;3.00;;;;;18.41;60.78;100998.13;5032092;28;9255;-37
2022/01/03 11:48:34;;;;;;;;;4.00;3.33;;;;;18.48;60.72;100991.91;5022460;28;9205;-37
2022/01/03 11:51:11;;;;;;;;;4.00;4.00;;;;;18.52;61.00;100993.66;5024282;28;10395;-37